sensor_id;sensor_type;location;lat;lon;timestamp;pressure;altitude;pressure_sealevel;temperature;humidity
65546;BME280;52177;55.968;37.498;2022-08-19T00:00:00;100327.97;;;20.12;58.49
65546;BME280;52177;55.968;37.498;2022-08-19T00:00:31;100327.75;;;20.14;58.36
65546;BME280;52177;55.968;37.498;2022-08-19T00:01:03;100326.69;;;20.15;58.23
65546;BME280;52177;55.968;37.498;2022-08-19T00:01:36;100325.25;;;20.12;58.56
65546;BME280;52177;55.968;37.498;2022-08-19T00:02:07;100329.59;;;20.13;58.43
65546;BME280;52177;55.968;37.498;2022-08-19T00:02:37;100331.28;;;20.14;58.20
65546;BME280;52177;55.968;37.498;2022-08-19T00:03:08;100335.41;;;20.17;58.33
65546;BME280;52177;55.968;37.498;2022-08-19T00:03:39;100330.00;;;20.17;58.32
65546;BME280;52177;55.968;37.498;2022-08-19T00:04:11;100334.97;;;20.20;58.43
65546;BME280;52177;55.968;37.498;2022-08-19T00:04:42;100332.25;;;20.20;58.38
65546;BME280;52177;55.968;37.498;2022-08-19T00:05:14;100339.94;;;20.23;58.06
65546;BME280;52177;55.968;37.498;2022-08-19T00:05:45;100336.63;;;20.21;58.14
65546;BME280;52177;55.968;37.498;2022-08-19T00:06:15;100339.94;;;20.23;57.99
65546;BME280;52177;55.968;37.498;2022-08-19T00:06:47;100323.47;;;20.24;57.87
65546;BME280;52177;55.968;37.498;2022-08-19T00:07:19;100338.66;;;20.26;57.58
65546;BME280;52177;55.968;37.498;2022-08-19T00:07:50;100329.25;;;20.28;57.68
65546;BME280;52177;55.968;37.498;2022-08-19T00:08:20;100341.75;;;20.29;57.81
65546;BME280;52177;55.968;37.498;2022-08-19T00:08:51;100335.50;;;20.29;57.69
65546;BME280;52177;55.968;37.498;2022-08-19T00:09:22;100339.84;;;20.30;57.24
65546;BME280;52177;55.968;37.498;2022-08-19T00:09:53;100339.41;;;20.33;57.34
65546;BME280;52177;55.968;37.498;2022-08-19T00:10:24;100334.63;;;20.35;57.08
65546;BME280;52177;55.968;37.498;2022-08-19T00:10:54;100338.13;;;20.35;57.02
65546;BME280;52177;55.968;37.498;2022-08-19T00:11:25;100337.91;;;20.37;57.29
65546;BME280;52177;55.968;37.498;2022-08-19T00:11:58;100335.19;;;20.37;57.20
65546;BME280;52177;55.968;37.498;2022-08-19T00:12:28;100338.75;;;20.37;57.09
65546;BME280;52177;55.968;37.498;2022-08-19T00:12:59;100343.09;;;20.38;57.07
65546;BME280;52177;55.968;37.498;2022-08-19T00:13:30;100340.16;;;20.40;56.80
65546;BME280;52177;55.968;37.498;2022-08-19T00:14:00;100342.06;;;20.39;56.82
65546;BME280;52177;55.968;37.498;2022-08-19T00:14:31;100339.09;;;20.41;57.09
65546;BME280;52177;55.968;37.498;2022-08-19T00:15:02;100345.34;;;20.41;56.85
65546;BME280;52177;55.968;37.498;2022-08-19T00:15:32;100345.94;;;20.43;57.16
65546;BME280;52177;55.968;37.498;2022-08-19T00:16:04;100342.22;;;20.44;56.90
65546;BME280;52177;55.968;37.498;2022-08-19T00:16:37;100341.38;;;20.44;56.90
65546;BME280;52177;55.968;37.498;2022-08-19T00:17:09;100345.94;;;20.43;57.18
65546;BME280;52177;55.968;37.498;2022-08-19T00:17:41;100345.13;;;20.43;57.46
65546;BME280;52177;55.968;37.498;2022-08-19T00:18:13;100351.38;;;20.43;57.61
65546;BME280;52177;55.968;37.498;2022-08-19T00:18:43;100345.13;;;20.43;57.83
65546;BME280;52177;55.968;37.498;2022-08-19T00:19:14;100352.22;;;20.44;57.48
65546;BME280;52177;55.968;37.498;2022-08-19T00:19:45;100344.31;;;20.42;56.81
65546;BME280;52177;55.968;37.498;2022-08-19T00:20:18;100342.63;;;20.41;56.80
65546;BME280;52177;55.968;37.498;2022-08-19T00:20:49;100350.19;;;20.39;56.70
65546;BME280;52177;55.968;37.498;2022-08-19T00:21:20;100347.47;;;20.39;56.46
65546;BME280;52177;55.968;37.498;2022-08-19T00:21:51;100350.19;;;20.39;56.85
65546;BME280;52177;55.968;37.498;2022-08-19T00:22:22;100355.59;;;20.39;56.80
65546;BME280;52177;55.968;37.498;2022-08-19T00:22:52;100354.53;;;20.40;56.38
65546;BME280;52177;55.968;37.498;2022-08-19T00:23:25;100352.66;;;20.41;56.49
65546;BME280;52177;55.968;37.498;2022-08-19T00:23:56;100356.19;;;20.41;56.38
65546;BME280;52177;55.968;37.498;2022-08-19T00:24:31;100354.06;;;20.43;56.53
65546;BME280;52177;55.968;37.498;2022-08-19T00:25:03;100349.50;;;20.44;56.40
65546;BME280;52177;55.968;37.498;2022-08-19T00:25:33;100350.53;;;20.43;56.32
65546;BME280;52177;55.968;37.498;2022-08-19T00:26:05;100354.06;;;20.43;56.15
65546;BME280;52177;55.968;37.498;2022-08-19T00:26:37;100345.94;;;20.43;56.33
65546;BME280;52177;55.968;37.498;2022-08-19T00:27:07;100347.84;;;20.43;56.18
65546;BME280;52177;55.968;37.498;2022-08-19T00:27:38;100341.59;;;20.42;56.70
65546;BME280;52177;55.968;37.498;2022-08-19T00:28:09;100343.50;;;20.42;56.50
65546;BME280;52177;55.968;37.498;2022-08-19T00:28:39;100344.31;;;20.42;56.48
65546;BME280;52177;55.968;37.498;2022-08-19T00:29:12;100343.25;;;20.43;56.24
65546;BME280;52177;55.968;37.498;2022-08-19T00:29:43;100344.31;;;20.42;56.45
65546;BME280;52177;55.968;37.498;2022-08-19T00:30:14;100348.91;;;20.42;56.30
65546;BME280;52177;55.968;37.498;2022-08-19T00:30:44;100345.34;;;20.41;56.19
65546;BME280;52177;55.968;37.498;2022-08-19T00:31:15;100345.13;;;20.43;55.84
65546;BME280;52177;55.968;37.498;2022-08-19T00:31:47;100340.78;;;20.42;55.79
65546;BME280;52177;55.968;37.498;2022-08-19T00:32:17;100347.84;;;20.43;55.85
65546;BME280;52177;55.968;37.498;2022-08-19T00:32:48;100346.19;;;20.42;55.96
65546;BME280;52177;55.968;37.498;2022-08-19T00:33:19;100347.84;;;20.43;56.05
65546;BME280;52177;55.968;37.498;2022-08-19T00:33:49;100343.50;;;20.42;56.04
65546;BME280;52177;55.968;37.498;2022-08-19T00:34:21;100347.84;;;20.43;56.13
65546;BME280;52177;55.968;37.498;2022-08-19T00:34:52;100345.94;;;20.43;56.20
65546;BME280;52177;55.968;37.498;2022-08-19T00:35:23;100345.94;;;20.43;55.68
65546;BME280;52177;55.968;37.498;2022-08-19T00:35:55;100345.13;;;20.43;55.77
65546;BME280;52177;55.968;37.498;2022-08-19T00:36:25;100345.13;;;20.43;55.66
65546;BME280;52177;55.968;37.498;2022-08-19T00:36:57;100347.63;;;20.44;55.54
65546;BME280;52177;55.968;37.498;2022-08-19T00:37:28;100348.66;;;20.43;55.23
65546;BME280;52177;55.968;37.498;2022-08-19T00:37:58;100343.25;;;20.43;55.48
65546;BME280;52177;55.968;37.498;2022-08-19T00:38:30;100349.72;;;20.42;55.64
65546;BME280;52177;55.968;37.498;2022-08-19T00:39:01;100344.78;;;20.39;55.45
65546;BME280;52177;55.968;37.498;2022-08-19T00:39:31;100344.16;;;20.37;55.39
65546;BME280;52177;55.968;37.498;2022-08-19T00:40:05;100343.56;;;20.35;55.68
65546;BME280;52177;55.968;37.498;2022-08-19T00:40:35;100353.56;;;20.35;55.63
65546;BME280;52177;55.968;37.498;2022-08-19T00:41:06;100353.56;;;20.35;55.99
65546;BME280;52177;55.968;37.498;2022-08-19T00:41:37;100356.50;;;20.33;55.73
65546;BME280;52177;55.968;37.498;2022-08-19T00:42:08;100354.59;;;20.34;55.94
65546;BME280;52177;55.968;37.498;2022-08-19T00:42:38;100347.31;;;20.34;55.79
65546;BME280;52177;55.968;37.498;2022-08-19T00:43:10;100350.25;;;20.33;55.94
65546;BME280;52177;55.968;37.498;2022-08-19T00:43:43;100351.53;;;20.30;55.92
65546;BME280;52177;55.968;37.498;2022-08-19T00:44:28;100349.03;;;20.29;55.98
65546;BME280;52177;55.968;37.498;2022-08-19T00:44:59;100349.03;;;20.29;56.05
65546;BME280;52177;55.968;37.498;2022-08-19T00:45:30;100353.63;;;20.28;55.80
65546;BME280;52177;55.968;37.498;2022-08-19T00:46:01;100351.75;;;20.29;55.81
65546;BME280;52177;55.968;37.498;2022-08-19T00:46:36;100352.81;;;20.28;55.80
65546;BME280;52177;55.968;37.498;2022-08-19T00:47:08;100356.34;;;20.28;55.76
65546;BME280;52177;55.968;37.498;2022-08-19T00:47:39;100354.44;;;20.29;55.46
65546;BME280;52177;55.968;37.498;2022-08-19T00:48:10;100354.91;;;20.26;55.45
65546;BME280;52177;55.968;37.498;2022-08-19T00:48:40;100357.38;;;20.27;55.66
65546;BME280;52177;55.968;37.498;2022-08-19T00:49:54;100359.25;;;20.27;55.38
65546;BME280;52177;55.968;37.498;2022-08-19T00:50:26;100354.91;;;20.26;55.29
65546;BME280;52177;55.968;37.498;2022-08-19T00:50:56;100359.88;;;20.29;55.31
65546;BME280;52177;55.968;37.498;2022-08-19T00:51:28;100361.50;;;20.30;55.25
65546;BME280;52177;55.968;37.498;2022-08-19T00:52:23;100357.38;;;20.27;55.46
65546;BME280;52177;55.968;37.498;2022-08-19T00:52:55;100361.75;;;20.28;55.23
65546;BME280;52177;55.968;37.498;2022-08-19T00:53:29;100358.22;;;20.28;55.01
65546;BME280;52177;55.968;37.498;2022-08-19T00:54:02;100360.31;;;20.26;55.47
65546;BME280;52177;55.968;37.498;2022-08-19T00:54:32;100356.75;;;20.25;55.28
65546;BME280;52177;55.968;37.498;2022-08-19T00:55:05;100362.19;;;20.25;55.48
65546;BME280;52177;55.968;37.498;2022-08-19T00:55:39;100367.22;;;20.21;55.66
65546;BME280;52177;55.968;37.498;2022-08-19T00:56:10;100352.88;;;20.21;55.51
65546;BME280;52177;55.968;37.498;2022-08-19T00:56:41;100361.00;;;20.21;55.51
65546;BME280;52177;55.968;37.498;2022-08-19T00:57:15;100362.03;;;20.20;55.56
65546;BME280;52177;55.968;37.498;2022-08-19T00:57:54;100363.91;;;20.19;55.88
65546;BME280;52177;55.968;37.498;2022-08-19T00:58:29;100366.00;;;20.17;55.99
65546;BME280;52177;55.968;37.498;2022-08-19T00:59:01;100360.84;;;20.16;56.14
65546;BME280;52177;55.968;37.498;2022-08-19T00:59:35;100359.16;;;20.15;56.14
65546;BME280;52177;55.968;37.498;2022-08-19T01:00:14;100364.78;;;20.13;56.27
65546;BME280;52177;55.968;37.498;2022-08-19T01:00:46;100355.03;;;20.12;56.27
65546;BME280;52177;55.968;37.498;2022-08-19T01:01:17;100355.25;;;20.11;56.25
65546;BME280;52177;55.968;37.498;2022-08-19T01:01:47;100361.72;;;20.10;56.60
65546;BME280;52177;55.968;37.498;2022-08-19T01:02:18;100357.34;;;20.09;56.55
65546;BME280;52177;55.968;37.498;2022-08-19T01:02:49;100355.91;;;20.06;56.73
65546;BME280;52177;55.968;37.498;2022-08-19T01:03:21;100361.56;;;20.05;57.22
65546;BME280;52177;55.968;37.498;2022-08-19T01:03:51;100363.44;;;20.04;57.01
65546;BME280;52177;55.968;37.498;2022-08-19T01:04:22;100361.78;;;20.03;56.81
65546;BME280;52177;55.968;37.498;2022-08-19T01:04:52;100364.50;;;20.03;56.80
65546;BME280;52177;55.968;37.498;2022-08-19T01:05:26;100357.44;;;20.02;56.99
65546;BME280;52177;55.968;37.498;2022-08-19T01:05:58;100360.34;;;20.00;56.96
65546;BME280;52177;55.968;37.498;2022-08-19T01:06:31;100358.47;;;20.01;57.25
65546;BME280;52177;55.968;37.498;2022-08-19T01:07:02;100359.53;;;20.00;57.10
65546;BME280;52177;55.968;37.498;2022-08-19T01:07:34;100362.25;;;20.00;57.11
65546;BME280;52177;55.968;37.498;2022-08-19T01:08:06;100367.03;;;19.98;57.07
65546;BME280;52177;55.968;37.498;2022-08-19T01:08:37;100366.22;;;19.97;56.90
65546;BME280;52177;55.968;37.498;2022-08-19T01:09:08;100364.53;;;19.96;56.91
65546;BME280;52177;55.968;37.498;2022-08-19T01:09:39;100363.72;;;19.96;56.86
65546;BME280;52177;55.968;37.498;2022-08-19T01:10:13;100362.66;;;19.97;56.63
65546;BME280;52177;55.968;37.498;2022-08-19T01:10:49;100367.03;;;19.98;56.68
65546;BME280;52177;55.968;37.498;2022-08-19T01:11:20;100366.44;;;19.96;56.85
65546;BME280;52177;55.968;37.498;2022-08-19T01:11:51;100359.38;;;19.95;57.01
65546;BME280;52177;55.968;37.498;2022-08-19T01:12:22;100363.13;;;19.94;57.00
65546;BME280;52177;55.968;37.498;2022-08-19T01:12:54;100365.00;;;19.93;56.89
65546;BME280;52177;55.968;37.498;2022-08-19T01:13:29;100361.47;;;19.93;57.29
65546;BME280;52177;55.968;37.498;2022-08-19T01:14:00;100370.63;;;19.92;57.62
65546;BME280;52177;55.968;37.498;2022-08-19T01:14:31;100365.81;;;19.94;57.21
65546;BME280;52177;55.968;37.498;2022-08-19T01:15:05;100360.88;;;19.91;56.98
65546;BME280;52177;55.968;37.498;2022-08-19T01:15:42;100361.06;;;19.89;57.03
65546;BME280;52177;55.968;37.498;2022-08-19T01:16:14;100367.53;;;19.88;57.10
65546;BME280;52177;55.968;37.498;2022-08-19T01:16:45;100365.06;;;19.87;57.29
65546;BME280;52177;55.968;37.498;2022-08-19T01:17:17;100362.56;;;19.85;56.90
65546;BME280;52177;55.968;37.498;2022-08-19T01:17:49;100364.69;;;19.83;57.22
65546;BME280;52177;55.968;37.498;2022-08-19T01:18:20;100373.63;;;19.84;57.48
65546;BME280;52177;55.968;37.498;2022-08-19T01:18:51;100370.50;;;19.80;57.48
65546;BME280;52177;55.968;37.498;2022-08-19T01:19:36;100373.22;;;19.80;57.50
65546;BME280;52177;55.968;37.498;2022-08-19T01:20:13;100371.78;;;19.77;57.30
65546;BME280;52177;55.968;37.498;2022-08-19T01:20:45;100370.34;;;19.75;57.56
65546;BME280;52177;55.968;37.498;2022-08-19T01:21:37;100367.66;;;19.75;57.44
65546;BME280;52177;55.968;37.498;2022-08-19T01:22:19;100376.41;;;19.70;57.61
65546;BME280;52177;55.968;37.498;2022-08-19T01:22:52;100370.19;;;19.70;57.73
65546;BME280;52177;55.968;37.498;2022-08-19T01:23:23;100378.91;;;19.72;58.00
65546;BME280;52177;55.968;37.498;2022-08-19T01:24:12;100377.66;;;19.68;57.80
65546;BME280;52177;55.968;37.498;2022-08-19T01:24:43;100371.22;;;19.69;57.71
65546;BME280;52177;55.968;37.498;2022-08-19T01:25:15;100379.34;;;19.69;57.24
65546;BME280;52177;55.968;37.498;2022-08-19T01:25:51;100375.81;;;19.68;57.46
65546;BME280;52177;55.968;37.498;2022-08-19T01:26:23;100372.25;;;19.68;57.61
65546;BME280;52177;55.968;37.498;2022-08-19T01:26:54;100377.66;;;19.68;57.37
65546;BME280;52177;55.968;37.498;2022-08-19T01:27:25;100376.03;;;19.67;57.43
65546;BME280;52177;55.968;37.498;2022-08-19T01:27:55;100380.56;;;19.66;57.78
65546;BME280;52177;55.968;37.498;2022-08-19T01:28:27;100377.25;;;19.64;57.88
65546;BME280;52177;55.968;37.498;2022-08-19T01:28:58;100377.50;;;19.63;58.00
65546;BME280;52177;55.968;37.498;2022-08-19T01:29:29;100375.81;;;19.61;58.20
65546;BME280;52177;55.968;37.498;2022-08-19T01:30:00;100381.47;;;19.60;58.30
65546;BME280;52177;55.968;37.498;2022-08-19T01:30:34;100386.03;;;19.59;58.63
65546;BME280;52177;55.968;37.498;2022-08-19T01:31:06;100387.09;;;19.58;58.18
65546;BME280;52177;55.968;37.498;2022-08-19T01:31:36;100385.66;;;19.56;58.31
65546;BME280;52177;55.968;37.498;2022-08-19T01:32:11;100387.53;;;19.55;58.20
65546;BME280;52177;55.968;37.498;2022-08-19T01:32:42;100385.03;;;19.54;58.35
65546;BME280;52177;55.968;37.498;2022-08-19T01:33:13;100387.94;;;19.52;58.58
65546;BME280;52177;55.968;37.498;2022-08-19T01:33:44;100394.41;;;19.51;58.62
65546;BME280;52177;55.968;37.498;2022-08-19T01:34:16;100391.94;;;19.50;58.60
65546;BME280;52177;55.968;37.498;2022-08-19T01:34:47;100391.09;;;19.49;58.48
65546;BME280;52177;55.968;37.498;2022-08-19T01:35:17;100387.56;;;19.49;58.55
65546;BME280;52177;55.968;37.498;2022-08-19T01:35:48;100389.47;;;19.48;58.62
65546;BME280;52177;55.968;37.498;2022-08-19T01:36:43;100393.44;;;19.46;58.29
65546;BME280;52177;55.968;37.498;2022-08-19T01:37:15;100392.56;;;19.45;58.76
65546;BME280;52177;55.968;37.498;2022-08-19T01:38:23;100398.84;;;19.46;58.14
65546;BME280;52177;55.968;37.498;2022-08-19T01:38:54;100390.72;;;19.46;58.06
65546;BME280;52177;55.968;37.498;2022-08-19T01:39:25;100397.97;;;19.45;58.00
65546;BME280;52177;55.968;37.498;2022-08-19T01:39:56;100400.69;;;19.45;57.79
65546;BME280;52177;55.968;37.498;2022-08-19T01:40:31;100400.69;;;19.45;57.89
65546;BME280;52177;55.968;37.498;2022-08-19T01:41:02;100388.44;;;19.43;57.61
65546;BME280;52177;55.968;37.498;2022-08-19T01:41:33;100393.84;;;19.43;57.71
65546;BME280;52177;55.968;37.498;2022-08-19T01:42:04;100386.56;;;19.43;57.49
65546;BME280;52177;55.968;37.498;2022-08-19T01:42:36;100387.81;;;19.40;57.34
65546;BME280;52177;55.968;37.498;2022-08-19T01:43:07;100397.00;;;19.39;57.52
65546;BME280;52177;55.968;37.498;2022-08-19T01:43:38;100387.44;;;19.37;57.72
65546;BME280;52177;55.968;37.498;2022-08-19T01:44:09;100388.47;;;19.36;57.65
65546;BME280;52177;55.968;37.498;2022-08-19T01:44:40;100392.44;;;19.33;57.73
65546;BME280;52177;55.968;37.498;2022-08-19T01:45:13;100393.50;;;19.32;57.65
65546;BME280;52177;55.968;37.498;2022-08-19T01:45:45;100391.81;;;19.31;57.68
65546;BME280;52177;55.968;37.498;2022-08-19T01:46:17;100388.94;;;19.26;57.48
65546;BME280;52177;55.968;37.498;2022-08-19T01:46:48;100392.72;;;19.25;57.62
65546;BME280;52177;55.968;37.498;2022-08-19T01:47:18;100394.59;;;19.25;57.61
65546;BME280;52177;55.968;37.498;2022-08-19T01:47:49;100389.19;;;19.25;57.85
65546;BME280;52177;55.968;37.498;2022-08-19T01:48:20;100381.91;;;19.25;57.65
65546;BME280;52177;55.968;37.498;2022-08-19T01:48:52;100384.81;;;19.24;57.74
65546;BME280;52177;55.968;37.498;2022-08-19T01:49:23;100384.81;;;19.24;57.58
65546;BME280;52177;55.968;37.498;2022-08-19T01:49:55;100385.00;;;19.22;57.56
65546;BME280;52177;55.968;37.498;2022-08-19T01:50:25;100387.97;;;19.21;57.47
65546;BME280;52177;55.968;37.498;2022-08-19T01:50:56;100392.53;;;19.20;57.68
65546;BME280;52177;55.968;37.498;2022-08-19T01:51:27;100388.78;;;19.21;57.54
65546;BME280;52177;55.968;37.498;2022-08-19T01:51:59;100386.69;;;19.23;57.46
65546;BME280;52177;55.968;37.498;2022-08-19T01:52:30;100388.16;;;19.19;57.44
65546;BME280;52177;55.968;37.498;2022-08-19T01:53:04;100391.09;;;19.17;57.19
65546;BME280;52177;55.968;37.498;2022-08-19T01:53:35;100393.19;;;19.15;57.39
65546;BME280;52177;55.968;37.498;2022-08-19T01:54:07;100387.78;;;19.15;57.52
65546;BME280;52177;55.968;37.498;2022-08-19T01:54:38;100386.09;;;19.14;57.46
65546;BME280;52177;55.968;37.498;2022-08-19T01:55:12;100393.38;;;19.14;57.64
65546;BME280;52177;55.968;37.498;2022-08-19T01:55:43;100387.16;;;19.13;57.64
65546;BME280;52177;55.968;37.498;2022-08-19T01:56:15;100391.75;;;19.13;57.55
65546;BME280;52177;55.968;37.498;2022-08-19T01:56:45;100390.69;;;19.14;57.84
65546;BME280;52177;55.968;37.498;2022-08-19T01:57:15;100396.91;;;19.14;57.83
65546;BME280;52177;55.968;37.498;2022-08-19T01:57:52;100388.59;;;19.16;57.71
65546;BME280;52177;55.968;37.498;2022-08-19T01:58:28;100385.69;;;19.17;57.52
65546;BME280;52177;55.968;37.498;2022-08-19T01:59:04;100382.75;;;19.19;57.45
65546;BME280;52177;55.968;37.498;2022-08-19T01:59:36;100386.06;;;19.21;57.40
65546;BME280;52177;55.968;37.498;2022-08-19T02:00:10;100393.13;;;19.22;57.34
65546;BME280;52177;55.968;37.498;2022-08-19T02:00:41;100386.91;;;19.22;57.49
65546;BME280;52177;55.968;37.498;2022-08-19T02:01:12;100385.00;;;19.22;57.33
65546;BME280;52177;55.968;37.498;2022-08-19T02:01:44;100385.88;;;19.23;57.44
65546;BME280;52177;55.968;37.498;2022-08-19T02:02:14;100385.63;;;19.24;57.46
65546;BME280;52177;55.968;37.498;2022-08-19T02:02:45;100390.00;;;19.25;57.11
65546;BME280;52177;55.968;37.498;2022-08-19T02:03:16;100388.13;;;19.26;57.17
65546;BME280;52177;55.968;37.498;2022-08-19T02:03:46;100386.47;;;19.25;57.08
65546;BME280;52177;55.968;37.498;2022-08-19T02:04:17;100396.25;;;19.26;57.22
65546;BME280;52177;55.968;37.498;2022-08-19T02:04:47;100399.16;;;19.24;57.06
65546;BME280;52177;55.968;37.498;2022-08-19T02:05:18;100388.34;;;19.24;57.02
65546;BME280;52177;55.968;37.498;2022-08-19T02:05:59;100392.72;;;19.25;56.67
65546;BME280;52177;55.968;37.498;2022-08-19T02:06:29;100390.00;;;19.25;56.90
65546;BME280;52177;55.968;37.498;2022-08-19T02:07:00;100387.31;;;19.25;56.68
65546;BME280;52177;55.968;37.498;2022-08-19T02:07:30;100398.13;;;19.25;56.56
65546;BME280;52177;55.968;37.498;2022-08-19T02:08:03;100390.00;;;19.25;56.78
65546;BME280;52177;55.968;37.498;2022-08-19T02:08:37;100399.75;;;19.26;56.85
65546;BME280;52177;55.968;37.498;2022-08-19T02:09:08;100394.81;;;19.23;56.96
65546;BME280;52177;55.968;37.498;2022-08-19T02:09:39;100392.31;;;19.22;57.08
65546;BME280;52177;55.968;37.498;2022-08-19T02:10:13;100393.56;;;19.19;56.90
65546;BME280;52177;55.968;37.498;2022-08-19T02:10:44;100385.69;;;19.17;57.29
65546;BME280;52177;55.968;37.498;2022-08-19T02:11:20;100393.56;;;19.19;57.24
65546;BME280;52177;55.968;37.498;2022-08-19T02:11:51;100390.03;;;19.18;57.18
65546;BME280;52177;55.968;37.498;2022-08-19T02:12:21;100390.03;;;19.18;57.29
65546;BME280;52177;55.968;37.498;2022-08-19T02:12:52;100387.34;;;19.18;57.29
65546;BME280;52177;55.968;37.498;2022-08-19T02:13:23;100388.97;;;19.19;57.16
65546;BME280;52177;55.968;37.498;2022-08-19T02:13:54;100390.66;;;19.21;57.23
65546;BME280;52177;55.968;37.498;2022-08-19T02:14:25;100390.66;;;19.21;57.19
65546;BME280;52177;55.968;37.498;2022-08-19T02:14:55;100396.69;;;19.23;57.00
65546;BME280;52177;55.968;37.498;2022-08-19T02:15:26;100393.13;;;19.22;57.15
65546;BME280;52177;55.968;37.498;2022-08-19T02:15:56;100393.97;;;19.23;57.11
65546;BME280;52177;55.968;37.498;2022-08-19T02:16:28;100395.63;;;19.24;57.35
65546;BME280;52177;55.968;37.498;2022-08-19T02:16:58;100393.97;;;19.23;57.39
65546;BME280;52177;55.968;37.498;2022-08-19T02:17:29;100390.41;;;19.22;57.15
65546;BME280;52177;55.968;37.498;2022-08-19T02:18:00;100396.06;;;19.21;57.44
65546;BME280;52177;55.968;37.498;2022-08-19T02:18:30;100395.00;;;19.22;57.37
65546;BME280;52177;55.968;37.498;2022-08-19T02:19:01;100394.19;;;19.21;57.25
65546;BME280;52177;55.968;37.498;2022-08-19T02:19:31;100397.94;;;19.20;57.41
65546;BME280;52177;55.968;37.498;2022-08-19T02:20:05;100396.06;;;19.21;57.22
65546;BME280;52177;55.968;37.498;2022-08-19T02:20:38;100397.94;;;19.20;57.05
65546;BME280;52177;55.968;37.498;2022-08-19T02:21:09;100396.06;;;19.21;57.24
65546;BME280;52177;55.968;37.498;2022-08-19T02:21:39;100398.97;;;19.19;57.35
65546;BME280;52177;55.968;37.498;2022-08-19T02:22:09;100399.78;;;19.19;57.37
65546;BME280;52177;55.968;37.498;2022-08-19T02:22:41;100402.28;;;19.21;57.37
65546;BME280;52177;55.968;37.498;2022-08-19T02:23:13;100399.59;;;19.21;57.55
65546;BME280;52177;55.968;37.498;2022-08-19T02:23:44;100401.47;;;19.21;57.83
65546;BME280;52177;55.968;37.498;2022-08-19T02:24:15;100398.53;;;19.22;57.74
65546;BME280;52177;55.968;37.498;2022-08-19T02:24:45;100400.41;;;19.22;57.59
65546;BME280;52177;55.968;37.498;2022-08-19T02:25:16;100403.94;;;19.22;57.71
65546;BME280;52177;55.968;37.498;2022-08-19T02:25:47;100406.06;;;19.20;57.55
65546;BME280;52177;55.968;37.498;2022-08-19T02:26:18;100406.06;;;19.20;57.83
65546;BME280;52177;55.968;37.498;2022-08-19T02:26:49;100398.97;;;19.19;58.07
65546;BME280;52177;55.968;37.498;2022-08-19T02:27:20;100405.44;;;19.18;57.96
65546;BME280;52177;55.968;37.498;2022-08-19T02:27:50;100406.47;;;19.17;58.12
65546;BME280;52177;55.968;37.498;2022-08-19T02:28:20;100407.72;;;19.14;57.92
65546;BME280;52177;55.968;37.498;2022-08-19T02:28:51;100407.72;;;19.14;58.00
65546;BME280;52177;55.968;37.498;2022-08-19T02:29:21;100413.13;;;19.14;58.19
65546;BME280;52177;55.968;37.498;2022-08-19T02:29:52;100402.31;;;19.14;58.31
65546;BME280;52177;55.968;37.498;2022-08-19T02:30:23;100406.09;;;19.13;58.24
65546;BME280;52177;55.968;37.498;2022-08-19T02:30:54;100406.91;;;19.14;58.00
65546;BME280;52177;55.968;37.498;2022-08-19T02:31:25;100407.72;;;19.14;58.46
65546;BME280;52177;55.968;37.498;2022-08-19T02:31:57;100405.25;;;19.13;58.55
65546;BME280;52177;55.968;37.498;2022-08-19T02:32:28;100405.25;;;19.13;58.49
65546;BME280;52177;55.968;37.498;2022-08-19T02:33:00;100407.72;;;19.14;58.72
65546;BME280;52177;55.968;37.498;2022-08-19T02:33:31;100412.31;;;19.14;58.93
65546;BME280;52177;55.968;37.498;2022-08-19T02:34:01;100413.94;;;19.15;58.73
65546;BME280;52177;55.968;37.498;2022-08-19T02:34:32;100410.22;;;19.16;58.47
65546;BME280;52177;55.968;37.498;2022-08-19T02:35:02;100406.69;;;19.15;58.78
65546;BME280;52177;55.968;37.498;2022-08-19T02:35:33;100410.22;;;19.16;58.42
65546;BME280;52177;55.968;37.498;2022-08-19T02:36:05;100406.69;;;19.15;58.41
65546;BME280;52177;55.968;37.498;2022-08-19T02:36:36;100407.72;;;19.14;58.47
65546;BME280;52177;55.968;37.498;2022-08-19T02:37:07;100408.53;;;19.15;58.56
65546;BME280;52177;55.968;37.498;2022-08-19T02:37:57;100410.66;;;19.13;58.85
65546;BME280;52177;55.968;37.498;2022-08-19T02:38:47;100408.78;;;19.13;58.50
65546;BME280;52177;55.968;37.498;2022-08-19T02:39:18;100412.31;;;19.14;58.68
65546;BME280;52177;55.968;37.498;2022-08-19T02:39:48;100409.41;;;19.15;58.22
65546;BME280;52177;55.968;37.498;2022-08-19T02:40:19;100411.88;;;19.17;58.16
65546;BME280;52177;55.968;37.498;2022-08-19T02:40:52;100413.31;;;19.19;58.02
65546;BME280;52177;55.968;37.498;2022-08-19T02:41:26;100409.59;;;19.21;58.25
65546;BME280;52177;55.968;37.498;2022-08-19T02:41:57;100408.53;;;19.22;58.32
65546;BME280;52177;55.968;37.498;2022-08-19T02:42:29;100412.03;;;19.22;58.32
65546;BME280;52177;55.968;37.498;2022-08-19T02:43:05;100414.75;;;19.22;58.59
65546;BME280;52177;55.968;37.498;2022-08-19T02:43:37;100408.31;;;19.23;58.20
65546;BME280;52177;55.968;37.498;2022-08-19T02:44:08;100412.66;;;19.24;58.29
65546;BME280;52177;55.968;37.498;2022-08-19T02:44:39;100408.09;;;19.25;58.22
65546;BME280;52177;55.968;37.498;2022-08-19T02:45:09;100408.94;;;19.25;57.83
65546;BME280;52177;55.968;37.498;2022-08-19T02:45:40;100413.50;;;19.25;57.88
65546;BME280;52177;55.968;37.498;2022-08-19T02:46:21;100410.81;;;19.25;57.96
65546;BME280;52177;55.968;37.498;2022-08-19T02:46:52;100412.66;;;19.24;58.40